Time;durP1;ratioP1;P1;durP2;ratioP2;P2;SDS_P1;SDS_P2;PMS_P1;PMS_P2;Temp;Humidity;BMP_temperature;BMP_pressure;BME280_temperature;BME280_humidity;BME280_pressure;Samples;Min_cycle;Max_cycle;Signal;HPM_P1;HPM_P2
2022/06/20 00:00:14;;;;;;;13.77;11.00;;;23.00;99.90;;;;;;5048652;28;20486;-69
2022/06/20 00:02:45;;;;;;;15.63;10.17;;;22.90;99.90;;;;;;5049294;28;20479;-69
2022/06/20 00:05:15;;;;;;;13.50;10.37;;;22.80;99.90;;;;;;5049018;28;20472;-69
2022/06/20 00:07:42;;;;;;;19.17;10.70;;;22.80;99.90;;;;;;5049334;28;20467;-68
2022/06/20 00:10:10;;;;;;;14.63;10.90;;;22.70;99.90;;;;;;5048650;28;20455;-69
2022/06/20 00:12:37;;;;;;;16.10;11.23;;;22.60;99.90;;;;;;5049236;28;20470;-68
2022/06/20 00:15:07;;;;;;;14.70;10.37;;;22.50;99.90;;;;;;5048888;28;20448;-68
2022/06/20 00:17:34;;;;;;;14.53;11.43;;;22.50;99.90;;;;;;5049151;28;20873;-68
2022/06/20 00:20:01;;;;;;;15.23;10.63;;;22.50;99.90;;;;;;5048554;28;21043;-67
2022/06/20 00:22:28;;;;;;;11.83;10.63;;;22.50;99.90;;;;;;5053116;28;20507;-68
2022/06/20 00:24:55;;;;;;;19.83;10.40;;;22.30;99.90;;;;;;5053068;28;21059;-69
2022/06/20 00:27:22;;;;;;;13.13;11.40;;;22.20;99.90;;;;;;5053223;28;20458;-68
2022/06/20 00:29:50;;;;;;;12.23;10.20;;;22.20;99.90;;;;;;5052385;28;20444;-67
2022/06/20 00:32:18;;;;;;;11.30;10.20;;;22.10;99.90;;;;;;5052834;28;20472;-68
2022/06/20 00:34:45;;;;;;;14.80;10.80;;;22.10;99.90;;;;;;5052501;28;21104;-68
2022/06/20 00:37:18;;;;;;;12.70;10.53;;;22.10;99.90;;;;;;5052909;28;20543;-68
2022/06/20 00:39:45;;;;;;;15.37;11.73;;;22.10;99.90;;;;;;5052212;28;20483;-67
2022/06/20 00:42:13;;;;;;;13.90;11.03;;;22.00;99.90;;;;;;5052425;28;20467;-69
2022/06/20 00:44:44;;;;;;;12.10;10.87;;;22.00;99.90;;;;;;5052237;28;20475;-69
2022/06/20 00:47:13;;;;;;;12.33;10.60;;;22.00;99.90;;;;;;5052954;28;20452;-69
2022/06/20 00:49:47;;;;;;;15.57;12.10;;;22.10;99.90;;;;;;5052652;28;20448;-68
2022/06/20 00:52:17;;;;;;;18.53;11.80;;;22.00;99.90;;;;;;5052703;28;20491;-67
2022/06/20 00:54:49;;;;;;;13.60;11.33;;;22.00;99.90;;;;;;5052029;28;20452;-68
2022/06/20 00:57:20;;;;;;;19.07;13.00;;;22.10;99.90;;;;;;5052499;28;20442;-68
2022/06/20 00:59:51;;;;;;;13.20;10.00;;;22.20;99.90;;;;;;5051769;28;20891;-67
2022/06/20 01:02:26;;;;;;;15.13;10.90;;;22.40;99.90;;;;;;5052264;28;20471;-68
2022/06/20 01:04:58;;;;;;;12.03;10.77;;;22.50;99.90;;;;;;5051886;28;20436;-68
2022/06/20 01:07:28;;;;;;;12.17;10.57;;;22.60;99.90;;;;;;5052112;28;20448;-68
2022/06/20 01:09:58;;;;;;;19.10;11.27;;;22.70;99.90;;;;;;5051193;28;20446;-68
2022/06/20 01:12:29;;;;;;;18.00;13.03;;;22.70;99.90;;;;;;5052268;28;20472;-68
2022/06/20 01:14:56;;;;;;;20.50;14.57;;;22.50;99.90;;;;;;5051754;28;20492;-68
2022/06/20 01:17:29;;;;;;;19.53;16.13;;;22.10;99.90;;;;;;5052165;28;20542;-69
2022/06/20 01:20:00;;;;;;;18.80;15.80;;;21.70;99.90;;;;;;5051026;28;20480;-68
2022/06/20 01:22:45;;;;;;;18.53;16.00;;;21.50;99.90;;;;;;5051874;28;20468;-68
2022/06/20 01:25:38;;;;;;;18.30;14.87;;;21.30;99.90;;;;;;5051551;28;20444;-68
2022/06/20 01:28:08;;;;;;;18.37;16.47;;;21.00;99.90;;;;;;5051874;28;20462;-68
2022/06/20 01:30:38;;;;;;;17.43;15.57;;;20.90;99.90;;;;;;5050863;28;21197;-68
2022/06/20 01:33:06;;;;;;;25.33;18.77;;;20.80;99.90;;;;;;5050757;28;20472;-68
2022/06/20 01:38:25;;;;;;;25.40;20.37;;;20.50;99.90;;;;;;4994552;28;20506;-68
2022/06/20 01:43:39;;;;;;;27.00;19.80;;;20.30;99.90;;;;;;5051562;28;20925;-68
2022/06/20 01:46:10;;;;;;;22.97;19.83;;;20.20;99.90;;;;;;5051202;28;20458;-68
2022/06/20 01:48:39;;;;;;;29.70;21.30;;;20.30;99.90;;;;;;5051370;28;20448;-68
2022/06/20 01:51:13;;;;;;;22.57;20.17;;;20.10;99.90;;;;;;5050470;28;20448;-68
2022/06/20 01:53:40;;;;;;;21.70;19.47;;;20.20;99.90;;;;;;5051407;28;20527;-69
2022/06/20 01:56:08;;;;;;;22.23;19.63;;;20.20;99.90;;;;;;5051140;28;20456;-69
2022/06/20 01:58:38;;;;;;;21.80;19.70;;;20.20;99.90;;;;;;5051029;28;20544;-69
2022/06/20 02:01:06;;;;;;;25.23;21.57;;;20.10;99.90;;;;;;5050271;28;21017;-68
2022/06/20 02:03:37;;;;;;;28.63;22.60;;;20.20;99.90;;;;;;5051011;28;20466;-68
2022/06/20 02:06:05;;;;;;;27.23;24.00;;;20.20;99.90;;;;;;5050920;28;20424;-69
2022/06/20 02:08:32;;;;;;;24.33;21.57;;;20.20;99.90;;;;;;5051056;28;20460;-69
2022/06/20 02:11:04;;;;;;;25.90;20.63;;;20.00;99.90;;;;;;5050303;28;20474;-69
2022/06/20 02:13:38;;;;;;;25.50;20.43;;;20.20;99.90;;;;;;5050930;28;20448;-68
2022/06/20 02:16:10;;;;;;;23.87;21.10;;;20.20;99.90;;;;;;5050531;28;20450;-67
2022/06/20 02:18:40;;;;;;;24.07;20.73;;;20.20;99.90;;;;;;5050928;28;20479;-68
2022/06/20 02:21:13;;;;;;;23.07;20.73;;;20.20;99.90;;;;;;5050076;28;20440;-68
2022/06/20 02:23:44;;;;;;;25.07;20.80;;;20.20;99.90;;;;;;5050761;28;20831;-69
2022/06/20 02:26:12;;;;;;;25.23;22.50;;;20.10;99.90;;;;;;5050305;28;20951;-69
2022/06/20 02:28:44;;;;;;;23.87;21.37;;;20.20;99.90;;;;;;5050371;28;20447;-69
2022/06/20 02:31:12;;;;;;;24.97;22.47;;;20.20;99.90;;;;;;5049750;28;20488;-68
2022/06/20 02:33:39;;;;;;;23.57;21.27;;;20.30;99.90;;;;;;5050629;28;20444;-68
2022/06/20 02:36:07;;;;;;;24.47;21.80;;;20.30;99.90;;;;;;5050198;28;20455;-69
2022/06/20 02:38:36;;;;;;;27.90;22.67;;;20.40;99.90;;;;;;5050503;28;21017;-66
2022/06/20 02:41:03;;;;;;;25.10;22.70;;;20.50;99.90;;;;;;5049508;28;20949;-67
2022/06/20 02:43:37;;;;;;;24.10;21.60;;;20.50;99.90;;;;;;5050156;28;20459;-67
2022/06/20 02:46:08;;;;;;;26.23;23.03;;;20.50;99.90;;;;;;5050196;28;20439;-68
2022/06/20 02:48:38;;;;;;;24.33;21.80;;;20.60;99.90;;;;;;5050343;28;20451;-69
2022/06/20 02:51:07;;;;;;;24.70;22.30;;;20.70;99.90;;;;;;5049244;28;20452;-69
2022/06/20 02:53:39;;;;;;;25.60;22.67;;;20.70;99.90;;;;;;5050391;28;20543;-68
2022/06/20 02:56:07;;;;;;;26.77;22.37;;;20.70;99.90;;;;;;5050173;28;20538;-69
2022/06/20 02:58:39;;;;;;;25.77;22.30;;;20.70;99.90;;;;;;5050710;28;20452;-68
2022/06/20 03:01:14;;;;;;;27.40;22.37;;;20.70;99.90;;;;;;5049510;28;20444;-68
2022/06/20 03:03:47;;;;;;;32.17;21.87;;;20.60;99.90;;;;;;5050435;28;20501;-68
2022/06/20 03:06:19;;;;;;;23.50;21.00;;;20.60;99.90;;;;;;5049662;28;20440;-65
2022/06/20 03:08:46;;;;;;;21.80;19.20;;;20.60;99.90;;;;;;5050190;28;20451;-68
2022/06/20 03:11:13;;;;;;;25.47;20.77;;;20.60;99.90;;;;;;5049177;28;20450;-66
2022/06/20 03:13:41;;;;;;;21.37;19.17;;;20.50;99.90;;;;;;5050173;28;20442;-67
2022/06/20 03:16:10;;;;;;;24.53;20.53;;;20.50;99.90;;;;;;5049498;28;20530;-68
2022/06/20 03:18:42;;;;;;;21.73;19.57;;;20.50;99.90;;;;;;5049877;28;20455;-68
2022/06/20 03:21:09;;;;;;;23.03;20.70;;;20.50;99.90;;;;;;5048971;28;20491;-66
2022/06/20 03:23:36;;;;;;;22.13;20.03;;;20.50;99.90;;;;;;5049949;28;20463;-69
2022/06/20 03:26:07;;;;;;;21.13;18.97;;;20.50;99.90;;;;;;5049462;28;20440;-68
2022/06/20 03:28:34;;;;;;;20.57;18.03;;;20.50;99.90;;;;;;5049799;28;20818;-69
2022/06/20 03:31:02;;;;;;;23.73;18.47;;;20.40;99.90;;;;;;5048860;28;20474;-69
2022/06/20 03:33:30;;;;;;;25.07;20.47;;;20.40;99.90;;;;;;5049472;28;20447;-67
2022/06/20 03:36:04;;;;;;;24.53;19.07;;;20.40;99.90;;;;;;5049344;28;20452;-68
2022/06/20 03:38:31;;;;;;;26.40;20.93;;;20.40;99.90;;;;;;5049726;28;20504;-68
2022/06/20 03:40:58;;;;;;;24.00;20.97;;;20.40;99.90;;;;;;5048758;28;20502;-68
2022/06/20 03:43:28;;;;;;;25.00;20.80;;;20.40;99.90;;;;;;5049367;28;20483;-68
2022/06/20 03:45:58;;;;;;;22.57;20.33;;;20.40;99.90;;;;;;5048937;28;20447;-68
2022/06/20 03:48:31;;;;;;;25.47;21.53;;;20.40;99.90;;;;;;5049298;28;20452;-68
2022/06/20 03:51:06;;;;;;;24.43;22.03;;;20.40;99.90;;;;;;5048796;28;20841;-69
2022/06/20 03:53:39;;;;;;;26.30;21.10;;;20.50;99.90;;;;;;5049460;28;20458;-69
2022/06/20 03:56:12;;;;;;;23.23;20.87;;;20.50;99.90;;;;;;5050726;28;20463;-69
2022/06/20 03:58:45;;;;;;;21.10;18.37;;;20.50;99.90;;;;;;5053681;28;20485;-69
2022/06/20 04:01:15;;;;;;;27.57;20.67;;;20.40;99.90;;;;;;5052517;28;20498;-68
2022/06/20 04:03:45;;;;;;;24.47;20.33;;;20.30;99.90;;;;;;5053579;28;20448;-69
2022/06/20 04:06:20;;;;;;;22.87;20.47;;;20.10;99.90;;;;;;5052941;28;20444;-68
2022/06/20 04:11:39;;;;;;;28.53;21.60;;;20.10;99.90;;;;;;5052361;28;20435;-69
2022/06/20 04:14:10;;;;;;;27.50;21.80;;;20.10;99.90;;;;;;5053053;28;20440;-69
2022/06/20 04:16:43;;;;;;;22.13;18.57;;;19.90;99.90;;;;;;5050970;28;20546;-69
2022/06/20 04:19:14;;;;;;;21.63;17.80;;;19.90;99.90;;;;;;5052791;28;21220;-68
2022/06/20 04:21:48;;;;;;;28.20;18.47;;;19.80;99.90;;;;;;5051890;28;20476;-68
2022/06/20 04:24:22;;;;;;;18.23;16.23;;;19.70;99.90;;;;;;5052031;28;20455;-67
2022/06/20 04:26:55;;;;;;;19.70;17.10;;;19.60;99.90;;;;;;5053050;28;20462;-68
2022/06/20 04:29:25;;;;;;;22.30;17.17;;;19.50;99.90;;;;;;5052686;28;20448;-69
2022/06/20 04:31:58;;;;;;;20.37;17.07;;;19.40;99.90;;;;;;5052056;28;20471;-74
2022/06/20 04:34:31;;;;;;;23.93;19.10;;;19.40;99.90;;;;;;5050118;28;20841;-69
2022/06/20 04:37:04;;;;;;;24.10;21.63;;;19.50;99.90;;;;;;5046509;28;20448;-69
2022/06/20 04:39:38;;;;;;;23.90;20.47;;;19.60;99.90;;;;;;5052447;28;20450;-70
2022/06/20 04:42:13;;;;;;;25.00;20.80;;;19.60;99.90;;;;;;5051934;28;20491;-70
2022/06/20 04:44:47;;;;;;;23.97;20.67;;;19.60;99.90;;;;;;5052057;28;20447;-67
2022/06/20 04:47:35;;;;;;;17.87;14.87;;;19.60;99.90;;;;;;5052333;28;20452;-67
2022/06/20 04:50:02;;;;;;;18.40;16.57;;;19.40;99.90;;;;;;5051510;28;20480;-67
2022/06/20 04:52:31;;;;;;;19.93;16.50;;;19.50;99.90;;;;;;5052027;28;20929;-67
2022/06/20 04:55:00;;;;;;;19.20;15.50;;;19.40;99.90;;;;;;5052024;28;20452;-68
2022/06/20 04:57:30;;;;;;;18.00;14.97;;;19.40;99.90;;;;;;5052197;28;20452;-69
2022/06/20 05:00:01;;;;;;;15.27;13.47;;;19.30;99.90;;;;;;5050517;28;20448;-66
2022/06/20 05:02:28;;;;;;;16.37;14.23;;;19.30;99.90;;;;;;5047091;28;20482;-68
2022/06/20 05:04:57;;;;;;;20.93;15.27;;;19.30;99.90;;;;;;5051962;28;20825;-68
2022/06/20 05:07:27;;;;;;;17.57;13.73;;;19.30;99.90;;;;;;5051859;28;20451;-68
2022/06/20 05:09:59;;;;;;;19.13;15.67;;;19.40;99.90;;;;;;5051352;28;21207;-68
2022/06/20 05:12:34;;;;;;;20.07;16.93;;;19.50;99.90;;;;;;5051230;28;20467;-67
2022/06/20 05:15:07;;;;;;;21.03;16.10;;;19.60;99.90;;;;;;5049954;28;20455;-68
2022/06/20 05:17:36;;;;;;;14.40;13.00;;;19.60;99.90;;;;;;5051975;28;20444;-68
2022/06/20 05:20:09;;;;;;;18.40;13.70;;;19.40;99.90;;;;;;5051146;28;20444;-68
2022/06/20 05:22:42;;;;;;;21.10;13.17;;;19.40;99.90;;;;;;5048916;28;20471;-66
2022/06/20 05:25:21;;;;;;;20.83;11.80;;;19.40;99.90;;;;;;5043136;28;20454;-67
2022/06/20 05:27:51;;;;;;;15.93;12.40;;;19.50;99.90;;;;;;5050128;28;20452;-68
2022/06/20 05:30:22;;;;;;;14.77;12.03;;;19.60;99.90;;;;;;5049071;28;20471;-67
2022/06/20 05:32:55;;;;;;;13.43;12.13;;;19.60;99.90;;;;;;5050043;28;20468;-67
2022/06/20 05:35:29;;;;;;;16.43;13.77;;;19.60;99.90;;;;;;5050463;28;20439;-67
2022/06/20 05:38:00;;;;;;;14.40;12.83;;;19.80;99.90;;;;;;5051558;28;20479;-68
2022/06/20 05:40:32;;;;;;;16.30;10.90;;;19.70;99.90;;;;;;5051035;28;20547;-67
2022/06/20 05:43:00;;;;;;;12.00;9.87;;;19.60;99.90;;;;;;5051426;28;21001;-67
2022/06/20 05:45:30;;;;;;;19.70;11.03;;;19.50;99.90;;;;;;5051256;28;20460;-67
2022/06/20 05:48:01;;;;;;;13.97;11.50;;;19.40;99.90;;;;;;5051740;28;20483;-68
2022/06/20 05:50:42;;;;;;;18.47;13.20;;;19.40;99.90;;;;;;5050718;28;20480;-67
2022/06/20 05:53:14;;;;;;;17.40;10.70;;;19.40;99.90;;;;;;5051082;28;20464;-67
2022/06/20 05:55:46;;;;;;;15.90;10.70;;;19.30;99.90;;;;;;5043509;28;20448;-64
2022/06/20 05:58:18;;;;;;;13.27;10.37;;;19.30;99.90;;;;;;5050864;28;20963;-64
2022/06/20 06:00:47;;;;;;;17.13;10.77;;;19.30;99.90;;;;;;5050305;28;20440;-67
2022/06/20 06:03:17;;;;;;;14.47;10.70;;;19.40;99.90;;;;;;5051079;28;20460;-65
2022/06/20 06:05:48;;;;;;;13.57;10.90;;;19.50;99.90;;;;;;5049106;28;20920;-66
2022/06/20 06:08:24;;;;;;;14.60;10.50;;;19.60;99.90;;;;;;5048339;28;20448;-65
2022/06/20 06:10:57;;;;;;;13.17;11.87;;;19.70;99.90;;;;;;5048426;28;20583;-65
2022/06/20 06:13:33;;;;;;;11.43;9.23;;;20.00;99.90;;;;;;5049415;28;20479;-68
2022/06/20 06:18:55;;;;;;;13.37;9.57;;;20.20;99.90;;;;;;5060315;28;20427;-66
2022/06/20 06:21:23;;;;;;;10.83;9.63;;;20.20;99.90;;;;;;5069345;28;21030;-65
2022/06/20 06:23:50;;;;;;;13.60;10.30;;;20.30;99.90;;;;;;5070613;28;20454;-65
2022/06/20 06:26:19;;;;;;;14.93;10.23;;;20.40;99.90;;;;;;5070231;28;20451;-68
2022/06/20 06:28:48;;;;;;;17.17;11.40;;;20.70;99.90;;;;;;5070586;28;20558;-68
2022/06/20 06:31:21;;;;;;;12.00;10.57;;;20.90;99.90;;;;;;5069539;28;20863;-69
2022/06/20 06:33:52;;;;;;;11.47;9.27;;;21.00;99.90;;;;;;5070393;28;20446;-69
2022/06/20 06:36:25;;;;;;;11.60;9.90;;;21.20;99.90;;;;;;5062608;28;20569;-66
2022/06/20 06:38:57;;;;;;;18.43;10.00;;;21.20;99.90;;;;;;5050370;28;20486;-68
2022/06/20 06:41:30;;;;;;;14.47;9.60;;;21.20;99.90;;;;;;5037823;28;20573;-68
2022/06/20 06:43:59;;;;;;;18.53;11.17;;;21.00;99.90;;;;;;5030089;28;20452;-67
2022/06/20 06:46:31;;;;;;;15.80;9.93;;;20.90;99.90;;;;;;5030189;28;20463;-66
2022/06/20 06:49:13;;;;;;;11.73;9.43;;;21.00;99.90;;;;;;5030398;28;20449;-67
2022/06/20 06:51:49;;;;;;;14.03;9.03;;;21.10;99.90;;;;;;5029314;28;20494;-66
2022/06/20 06:54:20;;;;;;;17.57;9.00;;;21.40;99.90;;;;;;5040968;28;20447;-68
2022/06/20 06:56:54;;;;;;;14.63;9.70;;;21.50;99.90;;;;;;5046430;28;20543;-70
2022/06/20 06:59:27;;;;;;;14.10;8.87;;;21.80;99.90;;;;;;5045201;28;20460;-66
2022/06/20 07:01:58;;;;;;;11.80;9.13;;;22.00;99.90;;;;;;5042191;28;20472;-70
2022/06/20 07:04:29;;;;;;;10.57;9.03;;;22.10;99.90;;;;;;5045561;28;20950;-69
2022/06/20 07:07:01;;;;;;;12.40;8.30;;;22.10;99.90;;;;;;5039681;28;20455;-69
2022/06/20 07:09:33;;;;;;;13.47;9.73;;;22.10;99.90;;;;;;5048069;28;20463;-69
2022/06/20 07:12:06;;;;;;;11.50;9.50;;;22.00;99.90;;;;;;5047539;28;20495;-70
2022/06/20 07:14:39;;;;;;;13.97;8.47;;;21.90;99.90;;;;;;5048009;28;20885;-70
2022/06/20 07:17:15;;;;;;;13.17;8.67;;;21.90;99.90;;;;;;5048269;28;20849;-69
2022/06/20 07:19:45;;;;;;;15.30;7.93;;;22.00;99.90;;;;;;5048387;28;20508;-69
2022/06/20 07:22:15;;;;;;;15.40;9.33;;;22.00;99.90;;;;;;5049682;28;20465;-69
2022/06/20 07:24:43;;;;;;;10.77;8.83;;;22.00;99.90;;;;;;5049446;28;20451;-69
2022/06/20 07:27:16;;;;;;;11.20;9.43;;;22.10;99.90;;;;;;5049752;28;20827;-70
2022/06/20 07:29:47;;;;;;;9.60;7.80;;;22.30;99.90;;;;;;5049041;28;20447;-68
2022/06/20 07:32:20;;;;;;;11.77;9.23;;;22.50;99.90;;;;;;5049336;28;20488;-70
2022/06/20 07:34:52;;;;;;;14.80;9.23;;;22.60;99.90;;;;;;5049477;28;20452;-67
2022/06/20 07:37:21;;;;;;;13.97;9.70;;;22.70;99.90;;;;;;5049608;28;20460;-70
2022/06/20 07:39:52;;;;;;;15.20;8.83;;;22.80;99.90;;;;;;5048962;28;20452;-69
2022/06/20 07:42:26;;;;;;;11.60;9.37;;;22.90;99.90;;;;;;5049472;28;20989;-70
2022/06/20 07:44:58;;;;;;;14.53;9.57;;;23.00;99.90;;;;;;5049267;28;20452;-68
2022/06/20 07:47:32;;;;;;;14.07;9.67;;;23.10;99.90;;;;;;5049516;28;20456;-70
2022/06/20 07:50:02;;;;;;;11.77;8.43;;;23.20;99.90;;;;;;5048763;28;21101;-70
2022/06/20 07:52:35;;;;;;;17.30;9.60;;;23.20;99.90;;;;;;5049366;28;20575;-69
2022/06/20 07:55:07;;;;;;;10.60;8.60;;;23.30;99.90;;;;;;5049102;28;20448;-69
2022/06/20 07:57:40;;;;;;;11.20;9.30;;;23.60;99.90;;;;;;5049708;28;20452;-68
2022/06/20 08:00:10;;;;;;;11.50;9.30;;;23.70;99.90;;;;;;5048632;28;20452;-69
2022/06/20 08:02:42;;;;;;;13.87;9.03;;;23.90;99.90;;;;;;5049788;28;20463;-69
2022/06/20 08:05:13;;;;;;;13.20;8.87;;;24.00;99.90;;;;;;5051754;28;20966;-69
2022/06/20 08:07:46;;;;;;;12.17;7.63;;;24.20;99.90;;;;;;5049347;28;20976;-68
2022/06/20 08:10:18;;;;;;;10.80;8.53;;;24.40;99.90;;;;;;5048929;28;20555;-69
2022/06/20 08:12:54;;;;;;;10.27;8.33;;;24.50;99.90;;;;;;5049664;28;20456;-69
2022/06/20 08:15:23;;;;;;;11.03;7.77;;;24.60;99.90;;;;;;5049201;28;20475;-69
2022/06/20 08:17:52;;;;;;;14.17;7.67;;;24.70;99.90;;;;;;5049425;28;20461;-68
2022/06/20 08:20:20;;;;;;;17.47;8.43;;;24.70;99.90;;;;;;5048805;28;20447;-69
2022/06/20 08:22:53;;;;;;;9.63;7.30;;;24.80;99.90;;;;;;5049603;28;20474;-68
2022/06/20 08:25:24;;;;;;;8.93;7.67;;;24.80;99.90;;;;;;5048984;28;20447;-68
2022/06/20 08:27:57;;;;;;;13.37;7.80;;;24.70;99.90;;;;;;5049402;28;20526;-69
2022/06/20 08:30:34;;;;;;;12.83;8.20;;;24.70;99.90;;;;;;5048380;28;20450;-69
2022/06/20 08:33:08;;;;;;;13.90;8.30;;;24.70;99.90;;;;;;5049545;28;20474;-69
2022/06/20 08:35:42;;;;;;;13.17;8.50;;;24.70;99.90;;;;;;5049065;28;20473;-68
2022/06/20 08:38:16;;;;;;;14.00;8.77;;;24.70;99.90;;;;;;5049238;28;20466;-68
2022/06/20 08:41:05;;;;;;;9.83;8.40;;;24.70;99.90;;;;;;5048221;28;20440;-68
2022/06/20 08:44:10;;;;;;;11.20;8.33;;;24.80;99.90;;;;;;5052870;28;20456;-68
2022/06/20 08:47:09;;;;;;;11.20;8.13;;;24.80;99.90;;;;;;5052279;28;20458;-68
2022/06/20 08:50:09;;;;;;;11.13;7.97;;;24.90;99.90;;;;;;5052516;28;20451;-69
2022/06/20 08:53:14;;;;;;;12.03;8.53;;;25.00;99.90;;;;;;5052516;28;20499;-66
2022/06/20 08:56:02;;;;;;;10.47;8.23;;;25.10;99.90;;;;;;5052743;28;20458;-69
2022/06/20 08:58:43;;;;;;;8.97;8.07;;;25.30;99.90;;;;;;5052384;28;20942;-68
2022/06/20 09:01:20;;;;;;;9.70;7.77;;;25.30;99.90;;;;;;5052110;28;20440;-67
2022/06/20 09:04:10;;;;;;;11.20;7.50;;;25.40;99.90;;;;;;5052558;28;20432;-69
2022/06/20 09:07:03;;;;;;;10.43;7.53;;;25.40;99.90;;;;;;5052491;28;20448;-69
2022/06/20 09:09:53;;;;;;;13.50;8.27;;;25.50;99.90;;;;;;5052308;28;20440;-69
2022/06/20 09:12:43;;;;;;;21.53;7.60;;;25.70;99.90;;;;;;5052062;28;21007;-68
2022/06/20 09:15:24;;;;;;;9.53;7.83;;;25.90;99.90;;;;;;5052200;28;20942;-68
2022/06/20 09:18:01;;;;;;;11.53;7.87;;;26.10;99.90;;;;;;5052006;28;20452;-68
2022/06/20 09:20:34;;;;;;;10.07;8.27;;;26.20;99.90;;;;;;5051662;28;20447;-68
2022/06/20 09:23:16;;;;;;;15.20;7.47;;;26.30;99.90;;;;;;5051892;28;20480;-69
2022/06/20 09:25:55;;;;;;;12.97;8.10;;;26.40;99.90;;;;;;5052280;28;20451;-69
2022/06/20 09:28:50;;;;;;;10.53;8.40;;;26.50;99.90;;;;;;5051867;28;20447;-68
2022/06/20 09:31:36;;;;;;;12.23;9.07;;;26.60;99.90;;;;;;5051623;28;20488;-68
2022/06/20 09:34:22;;;;;;;10.63;8.10;;;26.80;99.90;;;;;;5051775;28;21112;-67
2022/06/20 09:37:13;;;;;;;13.13;8.20;;;26.90;99.90;;;;;;5052051;28;20452;-69
2022/06/20 09:39:51;;;;;;;13.13;7.30;;;26.90;99.90;;;;;;5051726;28;20444;-69
2022/06/20 09:42:33;;;;;;;10.57;7.83;;;26.80;99.90;;;;;;5051526;28;20460;-69
2022/06/20 09:45:10;;;;;;;15.83;7.70;;;27.00;99.90;;;;;;5051517;28;21031;-69
2022/06/20 09:47:49;;;;;;;10.30;6.93;;;27.20;99.90;;;;;;5051732;28;20454;-68
2022/06/20 09:50:32;;;;;;;12.60;7.70;;;27.40;99.90;;;;;;5051199;28;20440;-69
2022/06/20 09:53:09;;;;;;;10.33;7.17;;;27.70;99.90;;;;;;5050635;28;20488;-69
2022/06/20 09:55:45;;;;;;;13.60;7.23;;;28.10;99.90;;;;;;5051252;28;20463;-69
2022/06/20 09:58:19;;;;;;;11.90;7.93;;;28.30;99.90;;;;;;5051398;28;20469;-69
2022/06/20 10:00:52;;;;;;;9.80;7.10;;;28.40;99.90;;;;;;5051132;28;20754;-69
2022/06/20 10:03:30;;;;;;;11.27;7.20;;;28.30;99.90;;;;;;5051182;28;20472;-67
2022/06/20 10:06:07;;;;;;;8.63;6.70;;;28.90;99.40;;;;;;5051164;28;20440;-69
2022/06/20 10:08:43;;;;;;;12.20;7.70;;;29.60;98.90;;;;;;5051029;28;20953;-69
2022/06/20 10:11:17;;;;;;;10.50;7.70;;;30.40;96.80;;;;;;5050714;28;20495;-69
2022/06/20 10:13:55;;;;;;;11.60;7.40;;;30.00;96.80;;;;;;5051204;28;20471;-69
2022/06/20 10:16:28;;;;;;;14.00;7.43;;;29.60;97.20;;;;;;5050933;28;20458;-70
2022/06/20 10:19:00;;;;;;;11.50;6.93;;;29.60;97.90;;;;;;5050863;28;21000;-70
2022/06/20 10:21:35;;;;;;;9.50;6.63;;;29.80;96.80;;;;;;5050583;28;20460;-69
2022/06/20 10:24:42;;;;;;;9.87;7.07;;;30.20;96.40;;;;;;5050797;28;20448;-69
2022/06/20 10:27:24;;;;;;;11.43;6.63;;;30.50;95.90;;;;;;5050654;28;20454;-67
2022/06/20 10:30:06;;;;;;;12.50;7.07;;;30.40;94.90;;;;;;5050639;28;20448;-69
2022/06/20 10:32:59;;;;;;;12.03;6.93;;;30.50;95.30;;;;;;5050593;28;20598;-69
2022/06/20 10:35:44;;;;;;;11.67;7.90;;;30.90;95.10;;;;;;5050472;28;20462;-69
2022/06/20 10:38:25;;;;;;;30.83;7.80;;;30.90;93.70;;;;;;5050760;28;20486;-68
2022/06/20 10:41:02;;;;;;;9.27;7.00;;;30.80;94.00;;;;;;5050171;28;20458;-69
2022/06/20 10:43:44;;;;;;;12.07;6.70;;;30.90;94.40;;;;;;5050505;28;20443;-68
2022/06/20 10:46:17;;;;;;;8.87;7.67;;;30.30;94.30;;;;;;5050591;28;20451;-69
2022/06/20 10:49:29;;;;;;;11.60;7.30;;;29.60;95.30;;;;;;5050720;28;20824;-68
2022/06/20 10:52:05;;;;;;;10.87;7.33;;;29.40;95.80;;;;;;5034452;28;20487;-69
2022/06/20 10:54:45;;;;;;;11.27;7.63;;;29.70;95.70;;;;;;5050479;28;20839;-70
2022/06/20 10:57:23;;;;;;;11.53;6.73;;;30.00;94.50;;;;;;5050761;28;20448;-67
2022/06/20 11:00:01;;;;;;;13.43;7.27;;;30.40;94.60;;;;;;5056957;28;20821;-68
2022/06/20 11:02:38;;;;;;;8.47;7.00;;;30.70;93.80;;;;;;5050399;28;20455;-68
2022/06/20 11:05:12;;;;;;;12.13;6.80;;;30.50;93.30;;;;;;5050554;28;20448;-68
2022/06/20 11:07:45;;;;;;;12.10;7.30;;;29.90;94.30;;;;;;5050421;28;20459;-69
2022/06/20 11:10:32;;;;;;;7.33;6.37;;;29.40;94.80;;;;;;5050078;28;20439;-68
2022/06/20 11:13:09;;;;;;;11.07;7.60;;;29.40;94.80;;;;;;5050230;28;20489;-69
2022/06/20 11:15:42;;;;;;;10.13;7.00;;;29.80;94.60;;;;;;5050204;28;20448;-68
2022/06/20 11:18:29;;;;;;;9.13;6.30;;;29.90;94.70;;;;;;5049909;28;20979;-69
2022/06/20 11:21:03;;;;;;;11.20;7.30;;;30.20;94.60;;;;;;5049611;28;20450;-68
2022/06/20 11:23:38;;;;;;;11.63;7.77;;;30.50;93.70;;;;;;5049801;28;20444;-69
2022/06/20 11:26:14;;;;;;;6.97;6.27;;;30.30;93.20;;;;;;5049692;28;20937;-69
2022/06/20 11:29:00;;;;;;;12.53;7.93;;;30.10;92.50;;;;;;5044421;28;20456;-68
2022/06/20 11:31:38;;;;;;;10.37;6.77;;;30.00;92.50;;;;;;5042448;28;20482;-69
2022/06/20 11:34:40;;;;;;;9.70;7.00;;;29.90;93.00;;;;;;5038820;28;20965;-68
2022/06/20 11:37:34;;;;;;;9.50;7.00;;;29.60;93.00;;;;;;5037013;28;20446;-68
2022/06/20 11:40:19;;;;;;;11.73;7.73;;;29.30;93.60;;;;;;5038931;28;20455;-68
2022/06/20 11:43:19;;;;;;;8.23;6.40;;;29.00;94.80;;;;;;5039248;28;20490;-68
2022/06/20 11:46:00;;;;;;;10.30;5.70;;;29.20;93.30;;;;;;5040712;28;20456;-67
2022/06/20 11:48:42;;;;;;;9.80;5.83;;;29.00;93.50;;;;;;5039491;28;20459;-67
2022/06/20 11:51:18;;;;;;;10.40;7.20;;;28.70;94.00;;;;;;5038030;28;20452;-67
2022/06/20 11:53:57;;;;;;;9.70;5.90;;;28.60;94.90;;;;;;5042662;28;20448;-68
2022/06/20 11:56:30;;;;;;;8.03;6.60;;;28.80;95.30;;;;;;5043769;28;20946;-68
2022/06/20 11:59:09;;;;;;;10.67;6.47;;;28.40;95.20;;;;;;5044084;28;20448;-68
2022/06/20 12:01:42;;;;;;;11.03;6.80;;;27.70;96.60;;;;;;5047112;28;20878;-67
2022/06/20 12:04:16;;;;;;;12.10;6.97;;;27.50;97.60;;;;;;5048693;28;20447;-68
2022/06/20 12:06:48;;;;;;;10.87;7.60;;;27.30;98.10;;;;;;5044028;28;20440;-67
2022/06/20 12:09:20;;;;;;;14.67;7.57;;;27.20;98.70;;;;;;5046458;28;20448;-69
2022/06/20 12:12:15;;;;;;;9.80;7.60;;;27.30;98.90;;;;;;5027626;28;20485;-67
2022/06/20 12:14:58;;;;;;;12.13;8.10;;;27.50;98.30;;;;;;5033854;28;20444;-67
2022/06/20 12:17:35;;;;;;;11.10;7.30;;;27.60;98.70;;;;;;5051303;28;20444;-66
2022/06/20 12:23:24;;;;;;;12.50;7.40;;;27.50;99.00;;;;;;5034770;28;20466;-67
2022/06/20 12:25:54;;;;;;;12.40;6.60;;;27.70;98.30;;;;;;5041182;28;20492;-67
2022/06/20 12:28:26;;;;;;;11.03;6.43;;;27.70;97.70;;;;;;5043240;28;20534;-65
2022/06/20 12:30:58;;;;;;;12.53;5.90;;;27.80;97.30;;;;;;5041148;28;20457;-67
2022/06/20 12:33:26;;;;;;;9.53;5.60;;;27.90;97.50;;;;;;5041568;28;20488;-67
2022/06/20 12:35:58;;;;;;;9.17;6.87;;;27.60;97.10;;;;;;5044300;28;20452;-68
2022/06/20 12:38:32;;;;;;;11.20;6.70;;;27.00;98.20;;;;;;5041378;28;20455;-68
2022/06/20 12:41:01;;;;;;;7.70;6.47;;;26.60;98.60;;;;;;5044126;28;20802;-67
2022/06/20 12:43:38;;;;;;;10.60;7.00;;;26.20;99.30;;;;;;5044338;28;20529;-68
2022/06/20 12:46:42;;;;;;;15.13;6.80;;;26.00;99.80;;;;;;5044974;28;20453;-68
2022/06/20 12:49:34;;;;;;;11.80;6.43;;;25.80;99.90;;;;;;5045406;28;20444;-68
2022/06/20 12:52:05;;;;;;;11.07;7.10;;;25.90;99.90;;;;;;5044283;28;20488;-68
2022/06/20 12:54:57;;;;;;;12.73;7.13;;;26.10;99.90;;;;;;5044917;28;20545;-69
2022/06/20 12:57:42;;;;;;;11.53;7.40;;;26.40;99.70;;;;;;5040995;28;20452;-69
2022/06/20 13:00:25;;;;;;;10.17;6.30;;;26.10;99.50;;;;;;5042881;28;20544;-69
2022/06/20 13:03:33;;;;;;;33.47;9.27;;;26.20;99.90;;;;;;5039860;28;20475;-69
2022/06/20 13:06:43;;;;;;;10.37;6.80;;;26.10;99.80;;;;;;5046143;28;20882;-68
2022/06/20 13:09:37;;;;;;;10.77;6.93;;;25.90;99.90;;;;;;5042927;28;20467;-69
2022/06/20 13:12:16;;;;;;;13.03;7.90;;;25.90;99.90;;;;;;5039030;28;20463;-69
2022/06/20 13:15:21;;;;;;;9.50;7.40;;;25.90;99.90;;;;;;5044703;28;20459;-69
2022/06/20 13:18:01;;;;;;;8.43;7.00;;;25.70;99.90;;;;;;5043997;28;20485;-68
2022/06/20 13:20:45;;;;;;;9.67;6.20;;;25.80;99.90;;;;;;5047948;28;20539;-69
2022/06/20 13:23:37;;;;;;;10.87;5.53;;;25.70;99.90;;;;;;5047556;28;20456;-69
2022/06/20 13:26:13;;;;;;;9.50;5.40;;;25.80;99.90;;;;;;5051287;28;20447;-68